createdAt,value
2022-08-17T00:01:00.494Z,99317.16
2022-08-17T00:02:06.562Z,99317.16
2022-08-17T00:03:25.657Z,99316.63
2022-08-17T00:04:27.452Z,99315.78
2022-08-17T00:05:36.868Z,99305.97
2022-08-17T00:06:41.241Z,99308.69
2022-08-17T00:07:43.044Z,99303.28
2022-08-17T00:08:54.688Z,99307.00
2022-08-17T00:09:57.642Z,99307.00
2022-08-17T00:11:02.107Z,99303.28
2022-08-17T00:12:43.210Z,99306.81
2022-08-17T00:13:34.222Z,99299.53
2022-08-17T00:14:36.215Z,99292.06
2022-08-17T00:15:40.775Z,99298.19
2022-08-17T00:16:51.018Z,99298.84
2022-08-17T00:18:01.942Z,99286.97
2022-08-17T00:19:08.412Z,99283.69
2022-08-17T00:20:13.585Z,99285.19
2022-08-17T00:21:23.928Z,99289.03
2022-08-17T00:22:34.993Z,99271.47
2022-08-17T00:23:38.125Z,99282.66
2022-08-17T00:24:42.940Z,99285.84
2022-08-17T00:25:45.820Z,99281.91
2022-08-17T00:26:50.210Z,99289.28
2022-08-17T00:27:52.018Z,99282.66
2022-08-17T00:28:58.642Z,99288.34
2022-08-17T00:30:00.456Z,99283.38
2022-08-17T00:31:04.924Z,99294.50
2022-08-17T00:33:22.799Z,99295.13
2022-08-17T00:33:32.197Z,99292.91
2022-08-17T00:34:34.359Z,99304.22
2022-08-17T00:35:38.869Z,99304.88
2022-08-17T00:37:01.464Z,99313.00
2022-08-17T00:38:05.113Z,99322.44
2022-08-17T00:39:10.719Z,99330.56
2022-08-17T00:40:13.509Z,99331.41
2022-08-17T00:41:19.348Z,99340.56
2022-08-17T00:42:22.229Z,99346.66
2022-08-17T00:43:37.534Z,99337.03
2022-08-17T00:44:39.424Z,99347.88
2022-08-17T00:45:44.170Z,99349.75
2022-08-17T00:46:47.929Z,99348.09
2022-08-17T00:47:52.351Z,99345.56
2022-08-17T00:48:54.220Z,99352.19
2022-08-17T00:49:58.645Z,99358.84
2022-08-17T00:51:15.727Z,99362.56
2022-08-17T00:52:20.639Z,99359.38
2022-08-17T00:53:25.250Z,99356.22
2022-08-17T00:54:27.245Z,99359.97
2022-08-17T00:55:31.659Z,99350.34
2022-08-17T00:56:34.632Z,99359.50
2022-08-17T00:57:43.406Z,99358.00
2022-08-17T00:58:47.978Z,99357.38
2022-08-17T01:00:01.588Z,99355.69
2022-08-17T01:01:08.686Z,99353.16
2022-08-17T01:02:11.086Z,99352.66
2022-08-17T01:03:21.665Z,99354.72
2022-08-17T01:04:23.585Z,99352.38
2022-08-17T01:05:28.797Z,99351.75
2022-08-17T01:06:30.736Z,99351.47
2022-08-17T01:07:35.299Z,99349.59
2022-08-17T01:08:40.614Z,99344.53
2022-08-17T01:09:45.310Z,99351.16
2022-08-17T01:10:57.598Z,99346.13
2022-08-17T01:12:07.262Z,99341.06
2022-08-17T01:13:10.813Z,99339.41
2022-08-17T01:14:15.404Z,99336.03
2022-08-17T01:15:17.333Z,99338.06
2022-08-17T01:16:24.464Z,99330.97
2022-08-17T01:17:27.416Z,99333.03
2022-08-17T01:18:31.932Z,99334.06
2022-08-17T01:19:36.075Z,99328.31
2022-08-17T01:20:48.150Z,99326.63
2022-08-17T01:21:51.727Z,99332.41
2022-08-17T01:22:56.134Z,99330.94
2022-08-17T01:23:58.120Z,99325.69
2022-08-17T01:25:03.418Z,99327.75
2022-08-17T01:26:06.793Z,99326.25
2022-08-17T01:27:11.445Z,99326.44
2022-08-17T01:28:13.359Z,99319.50
2022-08-17T01:29:37.765Z,99323.25
2022-08-17T01:30:59.034Z,99314.28
2022-08-17T01:32:05.640Z,99324.47
2022-08-17T01:33:11.464Z,99320.06
2022-08-17T01:34:17.067Z,99318.38
2022-08-17T01:35:18.935Z,99315.84
2022-08-17T01:36:23.674Z,99306.88
2022-08-17T01:37:30.022Z,99305.22
2022-08-17T01:38:34.429Z,99300.81
2022-08-17T01:39:42.018Z,99299.13
2022-08-17T01:40:48.538Z,99297.44
2022-08-17T01:42:04.552Z,99299.53
2022-08-17T01:43:13.488Z,99298.84
2022-08-17T01:44:15.327Z,99296.16
2022-08-17T01:45:24.646Z,99297.16
2022-08-17T01:46:29.309Z,99291.94
2022-08-17T01:47:36.073Z,99294.81
2022-08-17T01:48:38.940Z,99290.25
2022-08-17T01:49:43.574Z,99295.84
2022-08-17T01:50:45.985Z,99293.97
2022-08-17T01:51:50.991Z,99293.13
2022-08-17T01:52:54.187Z,99297.53
2022-08-17T01:53:59.894Z,99291.09
2022-08-17T01:55:01.723Z,99294.81
2022-08-17T01:56:10.310Z,99291.94
2022-08-17T01:57:13.440Z,99291.75
2022-08-17T01:58:17.931Z,99291.94
2022-08-17T01:59:19.883Z,99290.06
2022-08-17T02:00:24.393Z,99285.69
2022-08-17T02:01:28.849Z,99285.69
2022-08-17T02:02:33.299Z,99284.00
2022-08-17T02:03:35.646Z,99291.44
2022-08-17T02:04:40.266Z,99293.50
2022-08-17T02:05:42.056Z,99297.63
2022-08-17T02:06:54.225Z,99301.53
2022-08-17T02:08:00.566Z,99304.75
2022-08-17T02:09:05.619Z,99309.53
2022-08-17T02:10:19.781Z,99310.56
2022-08-17T02:11:24.622Z,99304.00
2022-08-17T02:12:38.080Z,99305.19
2022-08-17T02:13:44.375Z,99304.75
2022-08-17T02:14:46.406Z,99298.50
2022-08-17T02:15:50.810Z,99295.13
2022-08-17T02:16:53.155Z,99299.69
2022-08-17T02:17:57.665Z,99297.16
2022-08-17T02:19:01.606Z,99294.44
2022-08-17T02:20:06.590Z,99296.50
2022-08-17T02:21:08.458Z,99296.50
2022-08-17T02:22:12.828Z,99295.81
2022-08-17T02:23:14.668Z,99293.28
2022-08-17T02:25:01.252Z,99297.88
2022-08-17T02:25:43.451Z,99294.53
2022-08-17T02:26:48.805Z,99279.31
2022-08-17T02:27:50.611Z,99296.56
2022-08-17T02:28:54.992Z,99294.88
2022-08-17T02:29:57.109Z,99290.66
2022-08-17T02:31:05.799Z,99299.75
2022-08-17T02:32:08.848Z,99289.97
2022-08-17T02:33:13.607Z,99288.94
2022-08-17T02:34:15.804Z,99283.72
2022-08-17T02:35:21.794Z,99296.41
2022-08-17T02:36:27.315Z,99295.94
2022-08-17T02:37:32.620Z,99295.94
2022-08-17T02:38:34.537Z,99299.66
2022-08-17T02:39:39.002Z,99297.97
2022-08-17T02:40:40.825Z,99293.59
2022-08-17T02:41:45.216Z,99297.13
2022-08-17T02:42:47.109Z,99293.59
2022-08-17T02:43:51.568Z,99289.19
2022-08-17T02:44:53.649Z,99291.91
2022-08-17T02:45:58.171Z,99293.75
2022-08-17T02:47:00.093Z,99290.22
2022-08-17T02:48:05.244Z,99288.34
2022-08-17T02:49:07.053Z,99292.06
2022-08-17T02:50:12.327Z,99291.22
2022-08-17T02:51:14.280Z,99297.66
2022-08-17T02:52:18.742Z,99297.00
2022-08-17T02:53:40.792Z,99304.09
2022-08-17T02:54:45.291Z,99304.09
2022-08-17T02:55:47.132Z,99301.56
2022-08-17T02:56:51.508Z,99296.16
2022-08-17T02:57:53.338Z,99303.25
2022-08-17T02:58:58.752Z,99291.56
2022-08-17T03:00:00.653Z,99286.16
2022-08-17T03:01:06.022Z,99297.81
2022-08-17T03:02:08.384Z,99288.88
2022-08-17T03:03:13.757Z,99297.00
2022-08-17T03:04:15.538Z,99297.00
2022-08-17T03:05:21.058Z,99297.00
2022-08-17T03:06:22.977Z,99286.16
2022-08-17T03:07:27.367Z,99294.94
2022-08-17T03:08:29.383Z,99278.72
2022-08-17T03:09:34.008Z,99288.34
2022-08-17T03:10:35.861Z,99292.56
2022-08-17T03:11:40.274Z,99281.75
2022-08-17T03:12:43.377Z,99282.41
2022-08-17T03:13:47.918Z,99281.38
2022-08-17T03:14:49.811Z,99283.06
2022-08-17T03:15:54.478Z,99283.06
2022-08-17T03:16:56.263Z,99284.72
2022-08-17T03:18:01.016Z,99288.47
2022-08-17T03:19:02.869Z,99294.91
2022-08-17T03:20:08.037Z,99290.34
2022-08-17T03:21:13.348Z,99293.91
2022-08-17T03:22:36.010Z,99284.72
2022-08-17T03:23:41.277Z,99286.41
2022-08-17T03:24:46.192Z,99296.22
2022-08-17T03:25:49.859Z,99288.09
2022-08-17T03:26:57.637Z,99295.19
2022-08-17T03:27:59.456Z,99295.19
2022-08-17T03:29:03.889Z,99287.25
2022-08-17T03:30:06.129Z,99298.78
2022-08-17T03:31:10.514Z,99292.34
2022-08-17T03:32:13.323Z,99294.22
2022-08-17T03:33:17.753Z,99300.28
2022-08-17T03:34:19.920Z,99298.25
2022-08-17T03:35:24.999Z,99304.31
2022-08-17T03:36:29.427Z,99303.28
2022-08-17T03:37:33.075Z,99303.94
2022-08-17T03:38:39.392Z,99308.34
2022-08-17T03:39:41.505Z,99310.88
2022-08-17T03:40:57.225Z,99310.69
2022-08-17T03:42:07.470Z,99313.03
2022-08-17T03:43:12.443Z,99314.53
2022-08-17T03:44:14.245Z,99308.56
2022-08-17T03:45:40.145Z,99309.06
2022-08-17T03:46:56.990Z,99312.88
2022-08-17T03:48:13.887Z,99318.63
2022-08-17T03:49:31.355Z,99321.63
2022-08-17T03:50:59.819Z,99316.47
2022-08-17T03:52:16.978Z,99312.03
2022-08-17T03:53:33.809Z,99317.72
2022-08-17T03:54:50.633Z,99324.28
2022-08-17T03:56:07.583Z,99316.34
2022-08-17T03:57:13.734Z,99328.59
2022-08-17T03:58:15.530Z,99334.09
2022-08-17T03:59:22.281Z,99335.41
2022-08-17T04:00:24.505Z,99347.22
2022-08-17T04:01:29.871Z,99347.34
2022-08-17T04:02:34.938Z,99340.31
2022-08-17T04:03:36.738Z,99349.41
2022-08-17T04:04:41.412Z,99350.34
2022-08-17T04:05:43.360Z,99358.56
2022-08-17T04:06:48.010Z,99363.91
2022-08-17T04:07:49.819Z,99358.28
2022-08-17T04:08:54.282Z,99370.34
2022-08-17T04:09:58.089Z,99378.56
2022-08-17T04:11:03.030Z,99381.75
2022-08-17T04:12:05.302Z,99398.66
2022-08-17T04:13:09.884Z,99407.84
2022-08-17T04:14:11.696Z,99422.44
2022-08-17T04:15:16.238Z,99426.34
2022-08-17T04:16:18.387Z,99425.69
2022-08-17T04:17:23.118Z,99430.69
2022-08-17T04:18:26.116Z,99439.00
2022-08-17T04:19:30.514Z,99447.31
2022-08-17T04:20:32.384Z,99443.94
2022-08-17T04:21:37.199Z,99446.00
2022-08-17T04:22:39.038Z,99446.84
2022-08-17T04:23:43.487Z,99446.00
2022-08-17T04:24:45.281Z,99454.13
2022-08-17T04:25:51.299Z,99451.41
2022-08-17T04:26:54.769Z,99447.69
2022-08-17T04:27:59.666Z,99449.38
2022-08-17T04:29:01.545Z,99447.50
2022-08-17T04:30:07.080Z,99448.16
2022-08-17T04:31:09.607Z,99455.25
2022-08-17T04:32:14.540Z,99454.06
2022-08-17T04:33:17.780Z,99452.28
2022-08-17T04:34:23.055Z,99460.84
2022-08-17T04:35:26.055Z,99474.06
2022-08-17T04:36:30.609Z,99496.72
2022-08-17T04:37:32.849Z,99524.66
2022-08-17T04:38:37.973Z,99554.69
2022-08-17T04:39:39.921Z,99595.13
2022-08-17T04:40:56.924Z,99631.78
2022-08-17T04:42:08.056Z,99675.69
2022-08-17T04:43:18.861Z,99679.66
2022-08-17T04:44:37.040Z,99683.31
2022-08-17T04:45:40.901Z,99688.41
2022-08-17T04:47:00.234Z,99709.59
2022-08-17T04:48:02.057Z,99716.19
2022-08-17T04:49:07.942Z,99746.72
2022-08-17T04:50:09.922Z,99765.06
2022-08-17T04:51:15.680Z,99786.69
2022-08-17T04:52:32.348Z,99795.13
2022-08-17T04:53:43.094Z,99805.22
2022-08-17T04:54:47.570Z,99797.16
2022-08-17T04:55:51.414Z,99784.25
2022-08-17T04:56:55.843Z,99780.88
2022-08-17T04:57:57.827Z,99776.03
2022-08-17T04:59:03.451Z,99769.31
2022-08-17T05:00:06.370Z,99769.31
2022-08-17T05:01:10.951Z,99762.19
2022-08-17T05:02:16.722Z,99755.03
2022-08-17T05:03:18.636Z,99760.69
2022-08-17T05:04:34.361Z,99758.16
2022-08-17T05:05:38.227Z,99754.13
2022-08-17T05:06:42.661Z,99757.88
2022-08-17T05:07:44.453Z,99763.34
2022-08-17T05:08:48.874Z,99757.88
2022-08-17T05:09:50.792Z,99754.97
2022-08-17T05:10:55.302Z,99757.47
2022-08-17T05:12:02.926Z,99762.94
2022-08-17T05:13:12.179Z,99755.44
2022-08-17T05:14:16.649Z,99760.06
2022-08-17T05:15:18.446Z,99761.72
2022-08-17T05:16:24.411Z,99758.81
2022-08-17T05:17:26.236Z,99760.88
2022-08-17T05:18:31.028Z,99755.44
2022-08-17T05:19:35.439Z,99755.22
2022-08-17T05:20:39.489Z,99761.34
2022-08-17T05:21:43.935Z,99763.44
2022-08-17T05:22:51.269Z,99761.34
2022-08-17T05:23:58.496Z,99758.84
2022-08-17T05:25:01.887Z,99769.31
2022-08-17T05:26:07.239Z,99768.94
2022-08-17T05:27:12.853Z,99772.75
2022-08-17T05:28:27.352Z,99777.34
2022-08-17T05:29:35.222Z,99783.06
2022-08-17T05:30:41.115Z,99765.19
2022-08-17T05:31:45.504Z,99786.22
2022-08-17T05:32:59.163Z,99796.75
2022-08-17T05:34:03.583Z,99797.78
2022-08-17T05:35:05.862Z,99795.50
2022-08-17T05:36:11.326Z,99800.34
2022-08-17T05:37:33.426Z,99790.28
2022-08-17T05:38:38.116Z,99797.66
2022-08-17T05:39:40.230Z,99805.63
2022-08-17T05:40:44.694Z,99813.00
2022-08-17T05:41:47.840Z,99799.31
2022-08-17T05:42:52.773Z,99819.94
2022-08-17T05:43:56.541Z,99823.09
2022-08-17T05:45:01.283Z,99812.34
2022-08-17T05:46:19.594Z,99832.16
2022-08-17T05:47:21.514Z,99831.09
2022-08-17T05:48:35.544Z,99834.22
2022-08-17T05:49:44.658Z,99832.53
2022-08-17T05:50:50.708Z,99831.94
2022-08-17T05:52:24.602Z,99828.97
2022-08-17T05:53:35.269Z,99835.91
2022-08-17T05:54:47.140Z,99826.25
2022-08-17T05:55:51.321Z,99825.84
2022-08-17T05:57:03.068Z,99827.53
2022-08-17T05:58:16.579Z,99845.16
2022-08-17T05:59:29.299Z,99846.66
2022-08-17T06:00:45.962Z,99839.28
2022-08-17T06:01:58.754Z,99843.72
2022-08-17T06:03:06.310Z,99838.84
2022-08-17T06:04:22.233Z,99846.63
2022-08-17T06:05:34.191Z,99838.81
2022-08-17T06:06:50.518Z,99859.84
2022-08-17T06:08:30.383Z,99864.47
2022-08-17T06:09:40.112Z,99868.66
2022-08-17T06:10:47.944Z,99888.91
2022-08-17T06:12:14.478Z,99895.22
2022-08-17T06:13:39.920Z,99896.91
2022-08-17T06:14:47.537Z,99895.38
2022-08-17T06:15:52.382Z,99894.28
2022-08-17T06:17:02.547Z,99902.47
2022-08-17T06:18:08.667Z,99906.03
2022-08-17T06:19:13.207Z,99903.47
2022-08-17T06:20:18.156Z,99918.22
2022-08-17T06:21:20.115Z,99917.78
2022-08-17T06:22:31.887Z,99915.22
2022-08-17T06:23:38.174Z,99924.50
2022-08-17T06:24:48.375Z,99927.41
2022-08-17T06:25:51.306Z,99938.56
2022-08-17T06:26:56.918Z,99949.75
2022-08-17T06:28:02.407Z,99948.41
2022-08-17T06:29:27.105Z,99944.97
2022-08-17T06:30:58.446Z,99956.66
2022-08-17T06:31:54.535Z,99960.59
2022-08-17T06:33:02.901Z,99967.03
2022-08-17T06:34:06.900Z,99975.38
2022-08-17T06:35:12.536Z,99960.38
2022-08-17T06:36:15.780Z,99973.19
2022-08-17T06:37:32.772Z,99980.81
2022-08-17T06:38:44.436Z,99979.59
2022-08-17T06:39:47.393Z,99984.28
2022-08-17T06:41:12.398Z,99977.31
2022-08-17T06:43:02.136Z,99970.41
2022-08-17T06:43:59.871Z,99970.44
2022-08-17T06:45:04.586Z,99975.56
2022-08-17T06:46:10.739Z,99971.34
2022-08-17T06:47:15.690Z,99970.06
2022-08-17T06:48:52.370Z,99964.09
2022-08-17T06:50:05.596Z,99969.09
2022-08-17T06:51:11.712Z,99979.00
2022-08-17T06:52:42.226Z,99970.41
2022-08-17T06:53:49.241Z,99971.03
2022-08-17T06:55:18.829Z,99974.53
2022-08-17T06:56:27.117Z,99969.81
2022-08-17T06:57:56.764Z,99968.66
2022-08-17T06:59:01.150Z,99980.59
2022-08-17T07:00:10.326Z,99977.94
2022-08-17T07:01:18.027Z,99971.47
2022-08-17T07:02:29.394Z,99979.41
2022-08-17T07:04:03.914Z,99984.19
2022-08-17T07:05:09.073Z,99979.91
2022-08-17T07:06:14.675Z,99980.06
2022-08-17T07:07:31.527Z,99985.13
2022-08-17T07:08:41.843Z,99990.16
2022-08-17T07:09:44.254Z,99989.69
2022-08-17T07:10:53.623Z,99985.88
2022-08-17T07:11:59.374Z,99991.38
2022-08-17T07:13:02.688Z,100001.16
2022-08-17T07:14:17.518Z,99996.34
2022-08-17T07:15:20.947Z,99983.91
2022-08-17T07:16:31.333Z,99993.22
2022-08-17T07:17:46.722Z,100000.06
2022-08-17T07:18:53.193Z,99994.47
2022-08-17T07:20:01.566Z,99994.31
2022-08-17T07:21:08.505Z,99992.22
2022-08-17T07:22:28.099Z,99988.88
2022-08-17T07:23:38.697Z,99985.53
2022-08-17T07:24:45.234Z,99983.00
2022-08-17T07:25:47.824Z,99988.28
2022-08-17T07:27:04.805Z,99985.97
2022-08-17T07:28:09.496Z,99987.66
2022-08-17T07:29:11.407Z,99995.91
2022-08-17T07:30:40.078Z,99997.34
2022-08-17T07:31:52.019Z,100000.94
2022-08-17T07:33:13.216Z,99996.91
2022-08-17T07:34:15.782Z,99996.66
2022-08-17T07:35:41.044Z,99990.09
2022-08-17T07:36:45.511Z,99991.78
2022-08-17T07:37:54.243Z,99995.22
2022-08-17T07:38:57.689Z,100000.38
2022-08-17T07:40:15.947Z,99989.91
2022-08-17T07:41:21.456Z,99992.31
2022-08-17T07:42:23.325Z,99996.63
2022-08-17T07:43:31.231Z,99986.91
2022-08-17T07:44:33.385Z,99989.03
2022-08-17T07:45:54.413Z,99987.34
2022-08-17T07:47:11.379Z,99993.91
2022-08-17T07:48:23.662Z,99998.59
2022-08-17T07:49:34.354Z,99994.38
2022-08-17T07:50:36.166Z,99996.22
2022-08-17T07:51:48.012Z,99994.28
2022-08-17T07:52:51.440Z,99986.19
2022-08-17T07:54:22.351Z,99988.69
2022-08-17T07:55:32.798Z,99987.78
2022-08-17T07:56:40.684Z,99995.97
2022-08-17T07:57:45.250Z,99997.41
2022-08-17T07:58:49.055Z,100000.38
2022-08-17T08:00:03.163Z,99998.03
2022-08-17T08:01:18.594Z,100009.19
2022-08-17T08:02:33.866Z,100003.91
2022-08-17T08:03:43.859Z,99997.28
2022-08-17T08:05:02.375Z,100005.69
2022-08-17T08:06:08.079Z,99996.75
2022-08-17T08:07:20.313Z,100000.94
2022-08-17T08:08:25.476Z,99998.31
2022-08-17T08:09:34.943Z,100003.28
2022-08-17T08:10:45.462Z,99998.56
2022-08-17T08:11:48.527Z,100004.06
2022-08-17T08:12:54.763Z,100008.31
2022-08-17T08:13:57.225Z,100004.97
2022-08-17T08:15:30.269Z,100003.59
2022-08-17T08:16:34.893Z,100007.13
2022-08-17T08:18:01.015Z,100002.59
2022-08-17T08:19:03.024Z,100006.94
2022-08-17T08:20:35.017Z,100002.06
2022-08-17T08:21:39.761Z,100000.16
2022-08-17T08:22:46.807Z,100013.22
2022-08-17T08:23:54.799Z,100014.50
2022-08-17T08:25:03.517Z,100013.66
2022-08-17T08:26:23.474Z,100013.28
2022-08-17T08:27:31.630Z,100015.28
2022-08-17T08:28:38.474Z,100010.00
2022-08-17T08:29:58.348Z,100012.53
2022-08-17T08:31:26.588Z,100011.16
2022-08-17T08:32:34.195Z,100008.03
2022-08-17T08:33:42.963Z,100008.03
2022-08-17T08:35:07.212Z,100014.25
2022-08-17T08:36:56.996Z,100017.44
2022-08-17T08:37:53.157Z,100017.56
2022-08-17T08:38:56.803Z,100009.00
2022-08-17T08:40:07.549Z,100005.72
2022-08-17T08:41:19.318Z,100010.53
2022-08-17T08:42:25.091Z,100012.44
2022-08-17T08:43:36.272Z,100007.78
2022-08-17T08:45:00.113Z,100003.50
2022-08-17T08:46:15.085Z,100004.84
2022-08-17T08:47:46.621Z,100003.72
2022-08-17T08:49:12.216Z,100000.13
2022-08-17T08:50:38.126Z,100002.28
2022-08-17T08:51:46.919Z,100005.50
2022-08-17T08:53:03.565Z,100006.25
2022-08-17T08:54:12.526Z,100010.75
2022-08-17T08:55:16.942Z,100013.94
2022-08-17T08:56:49.806Z,100015.97
2022-08-17T08:58:32.272Z,100023.22
2022-08-17T08:59:57.718Z,100030.00
2022-08-17T09:01:02.888Z,100039.84
2022-08-17T09:02:11.319Z,100044.63
2022-08-17T09:03:50.927Z,100045.03
2022-08-17T09:05:13.518Z,100042.28
2022-08-17T09:06:39.366Z,100047.22
2022-08-17T09:07:59.234Z,100049.41
2022-08-17T09:09:01.422Z,100048.00
2022-08-17T09:10:11.937Z,100048.13
2022-08-17T09:11:13.784Z,100049.91
2022-08-17T09:12:27.462Z,100053.03
2022-08-17T09:13:32.055Z,100054.47
2022-08-17T09:14:45.409Z,100058.66
2022-08-17T09:15:57.379Z,100059.34
2022-08-17T09:17:06.623Z,100059.91
2022-08-17T09:19:00.772Z,100065.50
2022-08-17T09:19:45.612Z,100069.34
2022-08-17T09:21:06.712Z,100068.06
2022-08-17T09:22:18.995Z,100056.97
2022-08-17T09:23:35.621Z,100059.38
2022-08-17T09:24:54.746Z,100061.78
2022-08-17T09:26:15.691Z,100067.91
2022-08-17T09:27:34.126Z,100060.69
2022-08-17T09:28:39.614Z,100059.63
2022-08-17T09:29:52.523Z,100057.09
2022-08-17T09:31:02.544Z,100055.28
2022-08-17T09:32:20.365Z,100055.28
2022-08-17T09:33:26.183Z,100060.47
2022-08-17T09:34:35.327Z,100064.53
2022-08-17T09:35:45.136Z,100059.50
2022-08-17T09:36:57.931Z,100064.03
2022-08-17T09:38:07.123Z,100058.38
2022-08-17T09:39:09.588Z,100053.34
2022-08-17T09:40:21.753Z,100060.19
2022-08-17T09:41:29.430Z,100059.19
2022-08-17T09:42:41.143Z,100065.63
2022-08-17T09:44:04.222Z,100074.16
2022-08-17T09:45:27.574Z,100057.72
2022-08-17T09:46:31.119Z,100059.38
2022-08-17T09:47:40.704Z,100060.94
2022-08-17T09:48:47.127Z,100056.03
2022-08-17T09:49:50.044Z,100042.84
2022-08-17T09:51:11.604Z,100058.31
2022-08-17T09:52:26.780Z,100055.56
2022-08-17T09:53:32.085Z,100048.63
2022-08-17T09:54:39.615Z,100055.34
2022-08-17T09:56:00.687Z,100061.13
2022-08-17T09:57:32.181Z,100067.44
2022-08-17T09:58:37.590Z,100057.44
2022-08-17T09:59:45.721Z,100062.59
2022-08-17T10:00:54.134Z,100068.09
2022-08-17T10:01:59.610Z,100064.38
2022-08-17T10:03:22.615Z,100063.28
2022-08-17T10:04:43.242Z,100065.94
2022-08-17T10:05:48.186Z,100068.09
2022-08-17T10:07:01.058Z,100067.84
2022-08-17T10:08:25.683Z,100064.94
2022-08-17T10:09:40.920Z,100057.28
2022-08-17T10:10:52.488Z,100054.16
2022-08-17T10:12:30.175Z,100061.59
2022-08-17T10:13:53.146Z,100068.69
2022-08-17T10:15:17.452Z,100064.47
2022-08-17T10:16:27.821Z,100061.06
2022-08-17T10:17:38.321Z,100059.66
2022-08-17T10:18:43.127Z,100069.25
2022-08-17T10:20:07.841Z,100058.97
2022-08-17T10:21:31.301Z,100074.28
2022-08-17T10:22:53.236Z,100064.22
2022-08-17T10:24:18.815Z,100061.25
2022-08-17T10:25:53.649Z,100058.34
2022-08-17T10:27:00.426Z,100062.53
2022-08-17T10:28:05.736Z,100061.59
2022-08-17T10:29:17.838Z,100070.09
2022-08-17T10:30:21.203Z,100063.41
2022-08-17T10:31:34.591Z,100058.84
2022-08-17T10:32:49.028Z,100063.19
2022-08-17T10:34:02.604Z,100065.44
2022-08-17T10:35:25.703Z,100065.84
2022-08-17T10:36:38.201Z,100072.22
2022-08-17T10:37:42.756Z,100063.28
2022-08-17T10:38:48.794Z,100059.59
2022-08-17T10:39:57.453Z,100054.91
2022-08-17T10:41:04.323Z,100060.91
2022-08-17T10:42:13.994Z,100062.59
2022-08-17T10:43:37.283Z,100059.94
2022-08-17T10:44:49.967Z,100063.41
2022-08-17T10:46:10.350Z,100053.56
2022-08-17T10:47:20.187Z,100062.44
2022-08-17T10:48:29.910Z,100063.06
2022-08-17T10:49:36.011Z,100062.69
2022-08-17T10:50:43.474Z,100057.94
2022-08-17T10:51:49.204Z,100066.47
2022-08-17T10:52:54.882Z,100064.53
2022-08-17T10:53:57.322Z,100063.44
2022-08-17T10:55:01.813Z,100057.94
2022-08-17T10:56:12.807Z,100064.75
2022-08-17T10:57:29.605Z,100063.88
2022-08-17T10:58:32.028Z,100070.16
2022-08-17T10:59:39.348Z,100074.59
2022-08-17T11:00:41.216Z,100078.44
2022-08-17T11:01:52.065Z,100076.44
2022-08-17T11:02:57.613Z,100073.81
2022-08-17T11:04:03.631Z,100075.00
2022-08-17T11:05:28.679Z,100075.69
2022-08-17T11:06:42.635Z,100068.00
2022-08-17T11:07:53.578Z,100065.44
2022-08-17T11:09:01.032Z,100069.97
2022-08-17T11:10:24.701Z,100059.91
2022-08-17T11:11:36.012Z,100065.63
2022-08-17T11:13:01.242Z,100070.31
2022-08-17T11:14:04.651Z,100060.28
2022-08-17T11:15:17.912Z,100067.09
2022-08-17T11:16:19.742Z,100062.09
2022-08-17T11:17:35.303Z,100063.00
2022-08-17T11:19:06.006Z,100066.75
2022-08-17T11:20:10.716Z,100058.06
2022-08-17T11:21:34.843Z,100065.28
2022-08-17T11:22:39.613Z,100059.03
2022-08-17T11:24:02.827Z,100061.56
2022-08-17T11:25:15.290Z,100070.78
2022-08-17T11:26:26.205Z,100064.25
2022-08-17T11:27:31.959Z,100066.88
2022-08-17T11:28:35.983Z,100074.22
2022-08-17T11:29:41.843Z,100075.00
2022-08-17T11:30:47.118Z,100074.66
2022-08-17T11:32:05.542Z,100071.44
2022-08-17T11:33:26.151Z,100067.09
2022-08-17T11:34:31.083Z,100060.28
2022-08-17T11:35:40.163Z,100062.81
2022-08-17T11:36:50.387Z,100061.38
2022-08-17T11:38:16.472Z,100067.63
2022-08-17T11:39:27.899Z,100061.63
2022-08-17T11:40:35.499Z,100067.16
2022-08-17T11:41:40.383Z,100071.13
2022-08-17T11:43:14.173Z,100059.38
2022-08-17T11:44:19.125Z,100048.94
2022-08-17T11:45:40.389Z,100067.16
2022-08-17T11:47:20.450Z,100062.34
2022-08-17T11:48:51.643Z,100058.56
2022-08-17T11:50:27.835Z,100068.00
2022-08-17T11:51:51.113Z,100071.41
2022-08-17T11:52:55.908Z,100049.47
2022-08-17T11:54:30.698Z,100067.53
2022-08-17T11:55:39.586Z,100058.47
2022-08-17T11:56:46.421Z,100065.44
2022-08-17T11:58:01.811Z,100056.31
2022-08-17T11:59:05.780Z,100059.03
2022-08-17T12:00:11.418Z,100057.25
2022-08-17T12:01:22.689Z,100057.38
2022-08-17T12:02:31.659Z,100058.91
2022-08-17T12:03:37.668Z,100058.75
2022-08-17T12:04:42.237Z,100058.94
2022-08-17T12:05:44.082Z,100061.09
2022-08-17T12:06:49.979Z,100057.25
2022-08-17T12:07:52.226Z,100055.56
2022-08-17T12:09:03.757Z,100048.94
2022-08-17T12:10:07.711Z,100059.75
2022-08-17T12:11:57.795Z,100052.03
2022-08-17T12:12:46.765Z,100054.69
2022-08-17T12:13:50.117Z,100046.41
2022-08-17T12:15:10.632Z,100052.72
2022-08-17T12:16:15.297Z,100052.59
2022-08-17T12:17:41.639Z,100061.66
2022-08-17T12:18:52.773Z,100052.78
2022-08-17T12:19:55.772Z,100061.50
2022-08-17T12:21:16.301Z,100065.03
2022-08-17T12:22:32.972Z,100058.25
2022-08-17T12:23:35.314Z,100065.75
2022-08-17T12:24:45.750Z,100062.91
2022-08-17T12:25:49.476Z,100060.06
2022-08-17T12:26:58.707Z,100050.03
2022-08-17T12:28:05.500Z,100061.59
2022-08-17T12:29:18.277Z,100062.38
2022-08-17T12:30:40.145Z,100073.63
2022-08-17T12:31:49.189Z,100073.50
2022-08-17T12:32:53.910Z,100074.75
2022-08-17T12:33:55.865Z,100057.00
2022-08-17T12:35:00.404Z,100064.34
2022-08-17T12:36:03.590Z,100066.81
2022-08-17T12:37:09.946Z,100063.09
2022-08-17T12:38:32.546Z,100066.59
2022-08-17T12:39:37.419Z,100060.25
2022-08-17T12:40:39.297Z,100064.38
2022-08-17T12:41:45.298Z,100062.97
2022-08-17T12:43:00.841Z,100071.50
2022-08-17T12:44:04.673Z,100060.28
2022-08-17T12:45:10.378Z,100061.69
2022-08-17T12:46:17.899Z,100067.72
2022-08-17T12:47:23.761Z,100067.19
2022-08-17T12:48:26.674Z,100066.56
2022-08-17T12:49:38.737Z,100075.38
2022-08-17T12:50:44.991Z,100068.28
2022-08-17T12:51:47.150Z,100064.94
2022-08-17T12:52:51.543Z,100071.19
2022-08-17T12:54:01.297Z,100063.97
2022-08-17T12:55:16.250Z,100063.34
2022-08-17T12:56:19.719Z,100063.22
2022-08-17T12:57:33.495Z,100071.97
2022-08-17T12:58:36.794Z,100066.03
2022-08-17T12:59:45.751Z,100072.44
2022-08-17T13:00:52.302Z,100069.78
2022-08-17T13:01:54.170Z,100066.28
2022-08-17T13:03:03.418Z,100064.84
2022-08-17T13:04:06.648Z,100065.88
2022-08-17T13:05:17.417Z,100058.47
2022-08-17T13:06:32.197Z,100061.59
2022-08-17T13:07:44.873Z,100065.97
2022-08-17T13:08:48.023Z,100059.44
2022-08-17T13:09:53.545Z,100054.91
2022-08-17T13:10:59.502Z,100055.19
2022-08-17T13:12:01.408Z,100052.41
2022-08-17T13:13:06.731Z,100056.88
2022-08-17T13:14:09.924Z,100056.06
2022-08-17T13:15:31.298Z,100054.50
2022-08-17T13:16:33.480Z,100048.09
2022-08-17T13:17:38.608Z,100044.25
2022-08-17T13:18:49.246Z,100051.09
2022-08-17T13:19:51.346Z,100044.84
2022-08-17T13:20:56.043Z,100044.75
2022-08-17T13:21:59.086Z,100038.75
2022-08-17T13:23:07.521Z,100036.50
2022-08-17T13:24:21.554Z,100020.56
2022-08-17T13:25:26.408Z,100028.47